sensor_id;sensor_type;location;lat;lon;timestamp;pressure;altitude;pressure_sealevel;temperature;humidity
5691;BME280;2870;42.680;23.364;2023-04-28T00:00:52;95316.56;;;7.62;56.14
5691;BME280;2870;42.680;23.364;2023-04-28T00:03:18;95319.34;;;7.49;55.84
5691;BME280;2870;42.680;23.364;2023-04-28T00:05:45;95315.25;;;7.36;55.86
5691;BME280;2870;42.680;23.364;2023-04-28T00:08:13;95320.31;;;7.38;55.59
5691;BME280;2870;42.680;23.364;2023-04-28T00:10:40;95322.59;;;7.66;55.50
5691;BME280;2870;42.680;23.364;2023-04-28T00:13:07;95321.06;;;7.38;56.10
5691;BME280;2870;42.680;23.364;2023-04-28T00:15:35;95323.75;;;7.70;56.97
5691;BME280;2870;42.680;23.364;2023-04-28T00:18:02;95324.94;;;7.75;56.04
5691;BME280;2870;42.680;23.364;2023-04-28T00:20:28;95325.69;;;7.62;55.95
5691;BME280;2870;42.680;23.364;2023-04-28T00:22:55;95319.13;;;7.60;56.61
5691;BME280;2870;42.680;23.364;2023-04-28T00:25:22;95329.06;;;7.15;56.27
5691;BME280;2870;42.680;23.364;2023-04-28T00:27:49;95319.31;;;7.35;57.22
5691;BME280;2870;42.680;23.364;2023-04-28T00:30:16;95312.34;;;6.97;57.26
5691;BME280;2870;42.680;23.364;2023-04-28T00:32:44;95330.59;;;7.30;58.04
5691;BME280;2870;42.680;23.364;2023-04-28T00:35:11;95325.88;;;6.93;57.20
5691;BME280;2870;42.680;23.364;2023-04-28T00:37:38;95332.16;;;7.12;57.34
5691;BME280;2870;42.680;23.364;2023-04-28T00:40:06;95330.66;;;7.24;58.86
5691;BME280;2870;42.680;23.364;2023-04-28T00:42:33;95335.91;;;7.14;57.41
5691;BME280;2870;42.680;23.364;2023-04-28T00:44:59;95337.38;;;7.02;57.85
5691;BME280;2870;42.680;23.364;2023-04-28T00:47:30;95329.44;;;7.06;58.21
5691;BME280;2870;42.680;23.364;2023-04-28T00:49:58;95326.25;;;7.15;57.69
5691;BME280;2870;42.680;23.364;2023-04-28T00:52:26;95334.53;;;7.21;57.16
5691;BME280;2870;42.680;23.364;2023-04-28T00:54:53;95336.69;;;6.96;58.73
5691;BME280;2870;42.680;23.364;2023-04-28T00:57:21;95332.13;;;6.99;59.03
5691;BME280;2870;42.680;23.364;2023-04-28T00:59:48;95332.78;;;7.05;58.97
5691;BME280;2870;42.680;23.364;2023-04-28T01:02:15;95332.66;;;6.78;59.03
5691;BME280;2870;42.680;23.364;2023-04-28T01:04:43;95338.91;;;6.84;59.14
5691;BME280;2870;42.680;23.364;2023-04-28T01:07:12;95343.22;;;6.67;59.05
5691;BME280;2870;42.680;23.364;2023-04-28T01:09:39;95338.56;;;6.56;58.89
5691;BME280;2870;42.680;23.364;2023-04-28T01:12:06;95337.06;;;6.55;59.46
5691;BME280;2870;42.680;23.364;2023-04-28T01:14:33;95341.56;;;6.39;59.72
5691;BME280;2870;42.680;23.364;2023-04-28T01:17:00;95342.94;;;6.32;60.33
5691;BME280;2870;42.680;23.364;2023-04-28T01:19:28;95341.75;;;6.47;59.53
5691;BME280;2870;42.680;23.364;2023-04-28T01:21:55;95339.47;;;6.64;60.06
5691;BME280;2870;42.680;23.364;2023-04-28T01:24:23;95340.00;;;6.44;59.40
5691;BME280;2870;42.680;23.364;2023-04-28T01:26:51;95343.91;;;6.54;60.97
5691;BME280;2870;42.680;23.364;2023-04-28T01:29:18;95344.66;;;6.54;60.12
5691;BME280;2870;42.680;23.364;2023-04-28T01:31:44;95348.66;;;6.59;60.04
5691;BME280;2870;42.680;23.364;2023-04-28T01:34:11;95346.78;;;6.48;59.78
5691;BME280;2870;42.680;23.364;2023-04-28T01:36:38;95348.97;;;6.36;60.53
5691;BME280;2870;42.680;23.364;2023-04-28T01:39:05;95346.47;;;6.14;60.27
5691;BME280;2870;42.680;23.364;2023-04-28T01:41:33;95336.81;;;6.15;61.13
5691;BME280;2870;42.680;23.364;2023-04-28T01:44:00;95339.53;;;6.21;60.32
5691;BME280;2870;42.680;23.364;2023-04-28T01:46:27;95340.28;;;6.02;60.70
5691;BME280;2870;42.680;23.364;2023-04-28T01:48:54;95347.06;;;6.26;61.82
5691;BME280;2870;42.680;23.364;2023-04-28T01:51:20;95345.47;;;6.11;60.37
5691;BME280;2870;42.680;23.364;2023-04-28T01:53:47;95348.72;;;6.16;60.39
5691;BME280;2870;42.680;23.364;2023-04-28T01:56:14;95346.81;;;6.05;60.19
5691;BME280;2870;42.680;23.364;2023-04-28T01:58:42;95340.56;;;5.99;60.91
5691;BME280;2870;42.680;23.364;2023-04-28T02:01:09;95342.47;;;6.09;61.69
5691;BME280;2870;42.680;23.364;2023-04-28T02:03:36;95337.28;;;6.19;61.55
5691;BME280;2870;42.680;23.364;2023-04-28T02:06:03;95344.50;;;6.09;60.69
5691;BME280;2870;42.680;23.364;2023-04-28T02:08:30;95345.47;;;6.11;60.84
5691;BME280;2870;42.680;23.364;2023-04-28T02:10:57;95350.31;;;6.49;61.64
5691;BME280;2870;42.680;23.364;2023-04-28T02:13:25;95354.25;;;5.97;61.03
5691;BME280;2870;42.680;23.364;2023-04-28T02:15:54;95352.69;;;6.01;61.15
5691;BME280;2870;42.680;23.364;2023-04-28T02:18:21;95354.31;;;5.91;61.22
5691;BME280;2870;42.680;23.364;2023-04-28T02:20:47;95353.19;;;6.00;61.86
5691;BME280;2870;42.680;23.364;2023-04-28T02:23:14;95353.78;;;6.55;62.00
5691;BME280;2870;42.680;23.364;2023-04-28T02:25:41;95360.84;;;6.56;61.14
5691;BME280;2870;42.680;23.364;2023-04-28T02:28:07;95362.59;;;6.59;61.24
5691;BME280;2870;42.680;23.364;2023-04-28T02:30:34;95364.16;;;6.17;59.79
5691;BME280;2870;42.680;23.364;2023-04-28T02:33:03;95366.78;;;6.09;61.20
5691;BME280;2870;42.680;23.364;2023-04-28T02:35:30;95384.06;;;6.02;60.57
5691;BME280;2870;42.680;23.364;2023-04-28T02:37:56;95369.41;;;6.01;61.41
5691;BME280;2870;42.680;23.364;2023-04-28T02:40:23;95364.69;;;5.91;61.31
5691;BME280;2870;42.680;23.364;2023-04-28T02:42:50;95379.19;;;6.08;63.02
5691;BME280;2870;42.680;23.364;2023-04-28T02:45:17;95372.59;;;6.30;62.23
5691;BME280;2870;42.680;23.364;2023-04-28T02:47:43;95376.06;;;6.36;62.46
5691;BME280;2870;42.680;23.364;2023-04-28T02:50:12;95372.75;;;6.19;61.19
5691;BME280;2870;42.680;23.364;2023-04-28T02:52:39;95381.44;;;6.09;60.88
5691;BME280;2870;42.680;23.364;2023-04-28T02:55:06;95381.38;;;6.58;61.00
5691;BME280;2870;42.680;23.364;2023-04-28T02:57:33;95382.97;;;6.29;59.96
5691;BME280;2870;42.680;23.364;2023-04-28T02:59:59;95385.22;;;6.12;60.70
5691;BME280;2870;42.680;23.364;2023-04-28T03:02:26;95389.22;;;6.17;61.25
5691;BME280;2870;42.680;23.364;2023-04-28T03:04:53;95392.94;;;6.25;63.25
5691;BME280;2870;42.680;23.364;2023-04-28T03:07:21;95390.50;;;6.34;61.96
5691;BME280;2870;42.680;23.364;2023-04-28T03:09:48;95389.31;;;6.30;62.15
5691;BME280;2870;42.680;23.364;2023-04-28T03:12:15;95388.94;;;6.20;63.20
5691;BME280;2870;42.680;23.364;2023-04-28T03:14:42;95395.72;;;6.00;62.47
5691;BME280;2870;42.680;23.364;2023-04-28T03:17:09;95388.53;;;6.10;62.57
5691;BME280;2870;42.680;23.364;2023-04-28T03:19:35;95394.69;;;6.03;61.60
5691;BME280;2870;42.680;23.364;2023-04-28T03:22:02;95392.88;;;6.06;64.09
5691;BME280;2870;42.680;23.364;2023-04-28T03:24:30;95405.53;;;6.07;63.79
5691;BME280;2870;42.680;23.364;2023-04-28T03:26:57;95402.38;;;6.16;63.85
5691;BME280;2870;42.680;23.364;2023-04-28T03:29:24;95413.13;;;6.31;62.82
5691;BME280;2870;42.680;23.364;2023-04-28T03:31:51;95417.78;;;5.98;62.40
5691;BME280;2870;42.680;23.364;2023-04-28T03:34:17;95420.78;;;6.00;62.57
5691;BME280;2870;42.680;23.364;2023-04-28T03:36:44;95427.81;;;6.07;63.83
5691;BME280;2870;42.680;23.364;2023-04-28T03:39:11;95424.03;;;6.04;62.42
5691;BME280;2870;42.680;23.364;2023-04-28T03:41:39;95428.63;;;6.02;61.99
5691;BME280;2870;42.680;23.364;2023-04-28T03:44:06;95434.75;;;5.95;60.84
5691;BME280;2870;42.680;23.364;2023-04-28T03:46:33;95431.97;;;5.95;61.53
5691;BME280;2870;42.680;23.364;2023-04-28T03:49:00;95424.81;;;5.75;61.37
5691;BME280;2870;42.680;23.364;2023-04-28T03:51:27;95436.69;;;5.75;61.26
5691;BME280;2870;42.680;23.364;2023-04-28T03:53:54;95439.06;;;5.96;62.95
5691;BME280;2870;42.680;23.364;2023-04-28T03:56:21;95448.41;;;6.23;62.06
5691;BME280;2870;42.680;23.364;2023-04-28T03:58:49;95447.81;;;6.05;60.02
5691;BME280;2870;42.680;23.364;2023-04-28T04:01:16;95458.56;;;5.96;59.92
5691;BME280;2870;42.680;23.364;2023-04-28T04:03:43;95458.50;;;6.01;60.87
5691;BME280;2870;42.680;23.364;2023-04-28T04:06:10;95464.78;;;6.32;62.48
5691;BME280;2870;42.680;23.364;2023-04-28T04:08:38;95466.81;;;6.31;61.29
5691;BME280;2870;42.680;23.364;2023-04-28T04:11:05;95474.78;;;6.41;60.80
5691;BME280;2870;42.680;23.364;2023-04-28T04:13:32;95464.59;;;6.68;60.04
5691;BME280;2870;42.680;23.364;2023-04-28T04:16:00;95469.34;;;6.54;59.42
5691;BME280;2870;42.680;23.364;2023-04-28T04:18:27;95474.09;;;6.34;58.91
5691;BME280;2870;42.680;23.364;2023-04-28T04:20:54;95472.06;;;6.10;59.24
5691;BME280;2870;42.680;23.364;2023-04-28T04:23:21;95476.53;;;6.44;59.68
5691;BME280;2870;42.680;23.364;2023-04-28T04:25:48;95471.59;;;6.06;59.04
5691;BME280;2870;42.680;23.364;2023-04-28T04:28:15;95477.66;;;6.10;58.76
5691;BME280;2870;42.680;23.364;2023-04-28T04:30:42;95491.38;;;6.52;59.37
5691;BME280;2870;42.680;23.364;2023-04-28T04:33:11;95490.19;;;6.23;58.11
5691;BME280;2870;42.680;23.364;2023-04-28T04:35:38;95486.06;;;6.54;57.96
5691;BME280;2870;42.680;23.364;2023-04-28T04:38:05;95485.84;;;6.03;58.09
5691;BME280;2870;42.680;23.364;2023-04-28T04:40:31;95489.91;;;6.02;58.39
5691;BME280;2870;42.680;23.364;2023-04-28T04:42:59;95489.88;;;6.51;60.07
5691;BME280;2870;42.680;23.364;2023-04-28T04:45:26;95493.66;;;6.53;57.52
5691;BME280;2870;42.680;23.364;2023-04-28T04:47:53;95499.69;;;6.57;58.14
5691;BME280;2870;42.680;23.364;2023-04-28T04:50:22;95495.22;;;6.49;57.38
5691;BME280;2870;42.680;23.364;2023-04-28T04:52:48;95503.44;;;6.84;57.25
5691;BME280;2870;42.680;23.364;2023-04-28T04:55:15;95499.66;;;6.82;58.38
5691;BME280;2870;42.680;23.364;2023-04-28T04:57:42;95506.25;;;7.22;57.65
5691;BME280;2870;42.680;23.364;2023-04-28T05:00:10;95505.84;;;7.12;55.38
5691;BME280;2870;42.680;23.364;2023-04-28T05:02:37;95516.88;;;7.05;55.55
5691;BME280;2870;42.680;23.364;2023-04-28T05:05:04;95509.88;;;7.68;55.24
5691;BME280;2870;42.680;23.364;2023-04-28T05:07:32;95516.22;;;8.01;54.42
5691;BME280;2870;42.680;23.364;2023-04-28T05:09:59;95521.94;;;8.08;53.18
5691;BME280;2870;42.680;23.364;2023-04-28T05:12:26;95519.28;;;7.33;54.24
5691;BME280;2870;42.680;23.364;2023-04-28T05:14:52;95519.09;;;7.63;55.64
5691;BME280;2870;42.680;23.364;2023-04-28T05:17:19;95521.84;;;7.31;54.53
5691;BME280;2870;42.680;23.364;2023-04-28T05:19:46;95518.44;;;7.00;54.81
5691;BME280;2870;42.680;23.364;2023-04-28T05:22:13;95518.53;;;7.13;54.64
5691;BME280;2870;42.680;23.364;2023-04-28T05:24:41;95527.63;;;7.14;54.09
5691;BME280;2870;42.680;23.364;2023-04-28T05:27:08;95520.63;;;7.45;53.62
5691;BME280;2870;42.680;23.364;2023-04-28T05:29:34;95516.75;;;7.67;53.86
5691;BME280;2870;42.680;23.364;2023-04-28T05:32:01;95524.88;;;7.65;53.79
5691;BME280;2870;42.680;23.364;2023-04-28T05:34:28;95520.56;;;7.32;53.88
5691;BME280;2870;42.680;23.364;2023-04-28T05:36:55;95523.97;;;8.21;53.29
5691;BME280;2870;42.680;23.364;2023-04-28T05:39:21;95506.28;;;7.35;53.35
5691;BME280;2870;42.680;23.364;2023-04-28T05:41:49;95504.84;;;7.48;53.69
5691;BME280;2870;42.680;23.364;2023-04-28T05:44:16;95509.59;;;8.30;53.65
5691;BME280;2870;42.680;23.364;2023-04-28T05:46:43;95511.75;;;7.79;52.48
5691;BME280;2870;42.680;23.364;2023-04-28T05:49:10;95513.44;;;8.01;52.25
5691;BME280;2870;42.680;23.364;2023-04-28T05:51:37;95513.22;;;7.66;52.36
5691;BME280;2870;42.680;23.364;2023-04-28T05:54:04;95515.75;;;7.64;52.52
5691;BME280;2870;42.680;23.364;2023-04-28T05:56:30;95519.97;;;8.03;53.24
5691;BME280;2870;42.680;23.364;2023-04-28T05:58:59;95520.28;;;8.00;53.17
5691;BME280;2870;42.680;23.364;2023-04-28T06:01:28;95526.09;;;8.73;51.11
5691;BME280;2870;42.680;23.364;2023-04-28T06:03:55;95530.06;;;9.18;50.28
5691;BME280;2870;42.680;23.364;2023-04-28T06:06:23;95524.91;;;8.56;50.88
5691;BME280;2870;42.680;23.364;2023-04-28T06:08:50;95523.84;;;8.98;51.35
5691;BME280;2870;42.680;23.364;2023-04-28T06:11:17;95522.88;;;8.83;50.74
5691;BME280;2870;42.680;23.364;2023-04-28T06:13:46;95515.03;;;9.76;50.98
5691;BME280;2870;42.680;23.364;2023-04-28T06:16:14;95524.13;;;10.11;50.30
5691;BME280;2870;42.680;23.364;2023-04-28T06:18:42;95528.31;;;10.38;49.11
5691;BME280;2870;42.680;23.364;2023-04-28T06:21:09;95524.81;;;9.82;48.59
5691;BME280;2870;42.680;23.364;2023-04-28T06:23:35;95532.84;;;9.65;48.89
5691;BME280;2870;42.680;23.364;2023-04-28T06:26:05;95530.44;;;9.69;48.44
5691;BME280;2870;42.680;23.364;2023-04-28T06:28:31;95525.13;;;9.79;49.64
5691;BME280;2870;42.680;23.364;2023-04-28T06:30:58;95529.94;;;10.13;49.43
5691;BME280;2870;42.680;23.364;2023-04-28T06:33:26;95524.56;;;9.60;48.67
5691;BME280;2870;42.680;23.364;2023-04-28T06:35:53;95526.63;;;9.80;48.57
5691;BME280;2870;42.680;23.364;2023-04-28T06:38:20;95531.84;;;9.76;48.54
5691;BME280;2870;42.680;23.364;2023-04-28T06:40:47;95526.50;;;9.65;47.91
5691;BME280;2870;42.680;23.364;2023-04-28T06:43:14;95518.84;;;9.65;48.85
5691;BME280;2870;42.680;23.364;2023-04-28T06:45:41;95525.50;;;10.17;48.50
5691;BME280;2870;42.680;23.364;2023-04-28T06:48:07;95511.09;;;10.34;48.23
5691;BME280;2870;42.680;23.364;2023-04-28T06:50:36;95513.13;;;10.33;46.24
5691;BME280;2870;42.680;23.364;2023-04-28T06:53:03;95522.91;;;10.69;46.75
5691;BME280;2870;42.680;23.364;2023-04-28T06:55:29;95529.72;;;10.81;46.44
5691;BME280;2870;42.680;23.364;2023-04-28T06:57:56;95516.56;;;11.48;45.60
5691;BME280;2870;42.680;23.364;2023-04-28T07:00:23;95529.66;;;11.46;44.77
5691;BME280;2870;42.680;23.364;2023-04-28T07:02:50;95525.63;;;10.82;45.30
5691;BME280;2870;42.680;23.364;2023-04-28T07:05:17;95516.38;;;11.02;45.30
5691;BME280;2870;42.680;23.364;2023-04-28T07:07:46;95529.06;;;11.39;46.29
5691;BME280;2870;42.680;23.364;2023-04-28T07:10:13;95528.31;;;11.83;44.79
5691;BME280;2870;42.680;23.364;2023-04-28T07:12:40;95532.09;;;11.05;44.08
5691;BME280;2870;42.680;23.364;2023-04-28T07:15:08;95524.59;;;11.88;45.40
5691;BME280;2870;42.680;23.364;2023-04-28T07:17:34;95528.22;;;11.60;44.66
5691;BME280;2870;42.680;23.364;2023-04-28T07:20:01;95522.44;;;11.22;43.79
5691;BME280;2870;42.680;23.364;2023-04-28T07:22:29;95523.16;;;11.58;43.99
5691;BME280;2870;42.680;23.364;2023-04-28T07:24:57;95524.34;;;11.27;43.69
5691;BME280;2870;42.680;23.364;2023-04-28T07:27:25;95524.63;;;12.26;41.68
5691;BME280;2870;42.680;23.364;2023-04-28T07:29:51;95517.09;;;12.13;42.69
5691;BME280;2870;42.680;23.364;2023-04-28T07:32:18;95519.00;;;12.03;42.10
5691;BME280;2870;42.680;23.364;2023-04-28T07:34:45;95518.16;;;11.80;41.34
5691;BME280;2870;42.680;23.364;2023-04-28T07:37:12;95511.50;;;12.52;40.67
5691;BME280;2870;42.680;23.364;2023-04-28T07:39:39;95517.88;;;12.44;40.69
5691;BME280;2870;42.680;23.364;2023-04-28T07:42:09;95509.69;;;13.17;39.27
5691;BME280;2870;42.680;23.364;2023-04-28T07:44:36;95517.19;;;13.70;39.15
5691;BME280;2870;42.680;23.364;2023-04-28T07:47:03;95520.00;;;14.03;37.98
5691;BME280;2870;42.680;23.364;2023-04-28T07:49:30;95519.41;;;14.62;37.75
5691;BME280;2870;42.680;23.364;2023-04-28T07:51:57;95522.38;;;14.39;37.56
5691;BME280;2870;42.680;23.364;2023-04-28T07:54:24;95519.72;;;13.84;37.54
5691;BME280;2870;42.680;23.364;2023-04-28T07:56:51;95517.81;;;15.28;35.83
5691;BME280;2870;42.680;23.364;2023-04-28T07:59:19;95517.91;;;16.09;35.67
5691;BME280;2870;42.680;23.364;2023-04-28T08:01:46;95513.25;;;15.95;33.45
5691;BME280;2870;42.680;23.364;2023-04-28T08:04:13;95527.31;;;16.76;34.00
5691;BME280;2870;42.680;23.364;2023-04-28T08:06:40;95523.81;;;17.33;32.47
5691;BME280;2870;42.680;23.364;2023-04-28T08:09:07;95523.78;;;16.21;31.92
5691;BME280;2870;42.680;23.364;2023-04-28T08:11:33;95525.81;;;16.11;32.60
5691;BME280;2870;42.680;23.364;2023-04-28T08:14:00;95527.31;;;16.49;34.02
5691;BME280;2870;42.680;23.364;2023-04-28T08:16:29;95518.00;;;17.31;30.75
5691;BME280;2870;42.680;23.364;2023-04-28T08:18:57;95517.66;;;16.52;32.01
5691;BME280;2870;42.680;23.364;2023-04-28T08:21:24;95519.59;;;16.12;33.13
5691;BME280;2870;42.680;23.364;2023-04-28T08:23:51;95524.88;;;16.72;33.25
5691;BME280;2870;42.680;23.364;2023-04-28T08:26:18;95511.19;;;15.78;34.08
5691;BME280;2870;42.680;23.364;2023-04-28T08:28:44;95524.09;;;16.62;33.28
5691;BME280;2870;42.680;23.364;2023-04-28T08:31:11;95513.50;;;17.18;33.60
5691;BME280;2870;42.680;23.364;2023-04-28T08:33:39;95511.25;;;16.98;32.36
5691;BME280;2870;42.680;23.364;2023-04-28T08:36:08;95507.53;;;17.14;31.71
5691;BME280;2870;42.680;23.364;2023-04-28T08:38:36;95516.44;;;17.01;33.09
5691;BME280;2870;42.680;23.364;2023-04-28T08:41:03;95506.16;;;16.86;30.66
5691;BME280;2870;42.680;23.364;2023-04-28T08:43:34;95504.75;;;18.13;30.15
5691;BME280;2870;42.680;23.364;2023-04-28T08:46:04;95506.88;;;18.03;30.42
5691;BME280;2870;42.680;23.364;2023-04-28T08:48:39;95497.09;;;17.36;30.89
5691;BME280;2870;42.680;23.364;2023-04-28T08:51:08;95494.53;;;17.79;31.95
5691;BME280;2870;42.680;23.364;2023-04-28T08:53:37;95503.03;;;17.11;30.32
5691;BME280;2870;42.680;23.364;2023-04-28T08:56:05;95490.81;;;17.77;30.11
5691;BME280;2870;42.680;23.364;2023-04-28T08:58:34;95477.41;;;18.18;29.75
5691;BME280;2870;42.680;23.364;2023-04-28T09:01:01;95497.50;;;18.32;30.10
5691;BME280;2870;42.680;23.364;2023-04-28T09:03:29;95491.44;;;16.14;32.35
5691;BME280;2870;42.680;23.364;2023-04-28T09:05:57;95491.41;;;17.56;30.88
5691;BME280;2870;42.680;23.364;2023-04-28T09:08:24;95487.91;;;18.06;30.11
5691;BME280;2870;42.680;23.364;2023-04-28T09:11:05;95487.38;;;18.60;30.30
5691;BME280;2870;42.680;23.364;2023-04-28T09:13:33;95482.44;;;18.60;30.39
5691;BME280;2870;42.680;23.364;2023-04-28T09:16:00;95471.63;;;18.37;31.53
5691;BME280;2870;42.680;23.364;2023-04-28T09:18:27;95459.41;;;17.94;30.34
5691;BME280;2870;42.680;23.364;2023-04-28T09:21:03;95468.84;;;17.58;31.12
5691;BME280;2870;42.680;23.364;2023-04-28T09:23:31;95478.84;;;18.60;31.18
5691;BME280;2870;42.680;23.364;2023-04-28T09:26:00;95472.34;;;18.07;31.60
5691;BME280;2870;42.680;23.364;2023-04-28T09:28:27;95464.59;;;18.07;29.97
5691;BME280;2870;42.680;23.364;2023-04-28T09:30:54;95463.44;;;18.63;30.53
5691;BME280;2870;42.680;23.364;2023-04-28T09:33:21;95466.00;;;17.67;32.19
5691;BME280;2870;42.680;23.364;2023-04-28T09:35:48;95461.91;;;18.40;30.47
5691;BME280;2870;42.680;23.364;2023-04-28T09:38:18;95466.25;;;19.15;29.60
5691;BME280;2870;42.680;23.364;2023-04-28T09:40:49;95458.56;;;19.39;29.76
5691;BME280;2870;42.680;23.364;2023-04-28T09:43:27;95460.25;;;19.54;28.68
5691;BME280;2870;42.680;23.364;2023-04-28T09:45:55;95450.41;;;19.67;27.87
5691;BME280;2870;42.680;23.364;2023-04-28T09:48:29;95455.56;;;19.04;28.87
5691;BME280;2870;42.680;23.364;2023-04-28T09:50:57;95441.78;;;18.58;28.85
5691;BME280;2870;42.680;23.364;2023-04-28T09:53:25;95444.28;;;18.73;30.33
5691;BME280;2870;42.680;23.364;2023-04-28T09:55:54;95439.44;;;17.72;28.63
5691;BME280;2870;42.680;23.364;2023-04-28T09:58:22;95436.97;;;19.13;28.17
5691;BME280;2870;42.680;23.364;2023-04-28T10:00:52;95437.22;;;18.74;28.90
5691;BME280;2870;42.680;23.364;2023-04-28T10:03:21;95436.50;;;19.94;27.23
5691;BME280;2870;42.680;23.364;2023-04-28T10:05:49;95429.72;;;18.78;27.09
5691;BME280;2870;42.680;23.364;2023-04-28T10:08:17;95428.25;;;19.32;27.05
5691;BME280;2870;42.680;23.364;2023-04-28T10:10:47;95426.09;;;19.21;29.33
5691;BME280;2870;42.680;23.364;2023-04-28T10:13:15;95424.22;;;19.80;26.36
5691;BME280;2870;42.680;23.364;2023-04-28T10:15:43;95426.19;;;19.44;26.94
5691;BME280;2870;42.680;23.364;2023-04-28T10:18:11;95414.16;;;18.79;28.47
5691;BME280;2870;42.680;23.364;2023-04-28T10:20:39;95419.00;;;19.10;27.00
5691;BME280;2870;42.680;23.364;2023-04-28T10:23:24;95407.88;;;19.36;26.61
5691;BME280;2870;42.680;23.364;2023-04-28T10:25:57;95410.78;;;20.27;27.51
5691;BME280;2870;42.680;23.364;2023-04-28T10:28:25;95415.75;;;19.58;28.14
5691;BME280;2870;42.680;23.364;2023-04-28T10:31:08;95412.34;;;19.17;26.40
5691;BME280;2870;42.680;23.364;2023-04-28T10:33:36;95406.91;;;18.67;28.80
5691;BME280;2870;42.680;23.364;2023-04-28T10:36:03;95404.72;;;19.20;29.67
5691;BME280;2870;42.680;23.364;2023-04-28T10:38:32;95403.47;;;19.23;26.97
5691;BME280;2870;42.680;23.364;2023-04-28T10:41:00;95398.00;;;20.17;27.17
5691;BME280;2870;42.680;23.364;2023-04-28T10:43:37;95402.41;;;19.61;26.76
5691;BME280;2870;42.680;23.364;2023-04-28T10:46:06;95395.03;;;20.61;25.01
5691;BME280;2870;42.680;23.364;2023-04-28T10:48:53;95387.84;;;19.90;26.88
5691;BME280;2870;42.680;23.364;2023-04-28T10:51:30;95384.63;;;18.63;27.89
5691;BME280;2870;42.680;23.364;2023-04-28T10:54:27;95386.41;;;19.23;26.86
5691;BME280;2870;42.680;23.364;2023-04-28T10:57:18;95370.44;;;18.11;27.26
5691;BME280;2870;42.680;23.364;2023-04-28T10:59:47;95370.94;;;17.57;27.33
5691;BME280;2870;42.680;23.364;2023-04-28T11:02:39;95381.78;;;17.10;28.84
5691;BME280;2870;42.680;23.364;2023-04-28T11:05:15;95368.66;;;18.37;27.70
5691;BME280;2870;42.680;23.364;2023-04-28T11:11:18;95356.13;;;16.79;29.46
5691;BME280;2870;42.680;23.364;2023-04-28T11:13:47;95356.09;;;17.27;28.90
5691;BME280;2870;42.680;23.364;2023-04-28T11:16:16;95350.88;;;17.74;26.73
5691;BME280;2870;42.680;23.364;2023-04-28T11:18:57;95342.41;;;16.94;27.97
5691;BME280;2870;42.680;23.364;2023-04-28T11:21:27;95341.66;;;17.04;29.26
5691;BME280;2870;42.680;23.364;2023-04-28T11:23:54;95347.50;;;16.86;27.82
5691;BME280;2870;42.680;23.364;2023-04-28T11:26:23;95352.69;;;16.90;28.23
5691;BME280;2870;42.680;23.364;2023-04-28T11:28:52;95336.47;;;16.90;27.95
5691;BME280;2870;42.680;23.364;2023-04-28T11:31:20;95334.44;;;17.22;29.00
5691;BME280;2870;42.680;23.364;2023-04-28T11:33:59;95324.94;;;15.74;28.32
5691;BME280;2870;42.680;23.364;2023-04-28T11:36:31;95325.06;;;16.32;28.78
5691;BME280;2870;42.680;23.364;2023-04-28T11:38:59;95328.97;;;16.47;29.24
5691;BME280;2870;42.680;23.364;2023-04-28T11:41:26;95332.09;;;16.41;28.76
5691;BME280;2870;42.680;23.364;2023-04-28T11:43:55;95320.34;;;16.64;29.35
5691;BME280;2870;42.680;23.364;2023-04-28T11:46:24;95317.19;;;17.08;29.32
5691;BME280;2870;42.680;23.364;2023-04-28T11:48:59;95297.81;;;16.27;27.91
5691;BME280;2870;42.680;23.364;2023-04-28T11:51:29;95312.13;;;16.58;28.76
5691;BME280;2870;42.680;23.364;2023-04-28T11:53:56;95321.03;;;17.13;29.20
5691;BME280;2870;42.680;23.364;2023-04-28T11:56:23;95305.13;;;16.69;30.02
5691;BME280;2870;42.680;23.364;2023-04-28T11:59:02;95305.13;;;16.59;29.26
5691;BME280;2870;42.680;23.364;2023-04-28T12:01:31;95295.44;;;16.82;28.41
5691;BME280;2870;42.680;23.364;2023-04-28T12:03:58;95309.00;;;16.44;29.80
5691;BME280;2870;42.680;23.364;2023-04-28T12:06:25;95300.81;;;16.87;30.42
5691;BME280;2870;42.680;23.364;2023-04-28T12:08:53;95305.91;;;17.39;28.78
5691;BME280;2870;42.680;23.364;2023-04-28T12:11:20;95305.81;;;17.18;30.03
5691;BME280;2870;42.680;23.364;2023-04-28T12:14:09;95292.78;;;16.74;29.01
5691;BME280;2870;42.680;23.364;2023-04-28T12:16:37;95293.31;;;17.02;30.52
5691;BME280;2870;42.680;23.364;2023-04-28T12:19:07;95284.25;;;16.35;30.01
5691;BME280;2870;42.680;23.364;2023-04-28T12:21:35;95250.41;;;16.86;29.91
5691;BME280;2870;42.680;23.364;2023-04-28T12:24:13;95260.00;;;17.21;30.06
5691;BME280;2870;42.680;23.364;2023-04-28T12:26:39;95280.78;;;17.14;30.19
5691;BME280;2870;42.680;23.364;2023-04-28T12:29:07;95277.09;;;16.92;30.12
5691;BME280;2870;42.680;23.364;2023-04-28T12:31:48;95275.94;;;17.36;30.10
5691;BME280;2870;42.680;23.364;2023-04-28T12:34:17;95265.19;;;17.66;29.42
5691;BME280;2870;42.680;23.364;2023-04-28T12:36:43;95252.91;;;17.83;29.61
5691;BME280;2870;42.680;23.364;2023-04-28T12:39:13;95254.88;;;17.39;29.76
5691;BME280;2870;42.680;23.364;2023-04-28T12:41:43;95264.72;;;17.69;30.36
5691;BME280;2870;42.680;23.364;2023-04-28T12:44:10;95260.75;;;17.94;30.06
5691;BME280;2870;42.680;23.364;2023-04-28T12:46:36;95258.19;;;17.67;30.38
5691;BME280;2870;42.680;23.364;2023-04-28T12:49:05;95265.38;;;17.58;29.41
5691;BME280;2870;42.680;23.364;2023-04-28T12:51:32;95253.25;;;17.36;29.39
5691;BME280;2870;42.680;23.364;2023-04-28T12:53:59;95251.94;;;17.18;30.12
5691;BME280;2870;42.680;23.364;2023-04-28T12:56:26;95243.38;;;17.37;30.27
5691;BME280;2870;42.680;23.364;2023-04-28T12:58:53;95248.84;;;17.14;31.69
5691;BME280;2870;42.680;23.364;2023-04-28T13:01:19;95232.06;;;17.37;31.57
5691;BME280;2870;42.680;23.364;2023-04-28T13:03:46;95240.75;;;17.61;31.79
5691;BME280;2870;42.680;23.364;2023-04-28T13:06:16;95238.38;;;17.16;30.30
5691;BME280;2870;42.680;23.364;2023-04-28T13:08:43;95238.69;;;17.20;30.81
5691;BME280;2870;42.680;23.364;2023-04-28T13:11:10;95228.09;;;17.21;31.59
5691;BME280;2870;42.680;23.364;2023-04-28T13:13:37;95229.31;;;17.80;30.81
5691;BME280;2870;42.680;23.364;2023-04-28T13:16:04;95234.88;;;17.99;29.62
5691;BME280;2870;42.680;23.364;2023-04-28T13:18:31;95223.03;;;17.51;30.06
5691;BME280;2870;42.680;23.364;2023-04-28T13:20:58;95222.50;;;17.64;29.75
5691;BME280;2870;42.680;23.364;2023-04-28T13:23:26;95222.19;;;16.98;29.58
5691;BME280;2870;42.680;23.364;2023-04-28T13:25:53;95228.88;;;17.43;30.30